Freetown, Kentucky
Current Conditions -  °F | °C
As of 12:55 PM on Saturday 25 Oct 2014 (Local Time) from KGLW Reporting Station
Scattered Clouds Scattered Clouds  
Wind Chill: 20°   Ceiling: Unl
Heat Index: 20°   Visibility: 10mi
Dew Point: 13°   Wind: 7mph
Humidity: 62%   Direction: 170°S
Pressure: 30.02"   Gusts: NA
Location:  36.6549°N, 85.8315°W
Report Text: KGLW 251755Z AUTO 17006KT 10SM SCT050 21/13 A3002 RMK AO2 T02050130 10205 20052
Loading
Personal Weather Stations






























Interactive Weather Map
Tropical Storm Tracking
New forecast layout! Learn more

10-Day Weather Forecast

Advertisements
Track Severe Weather on mobile